N504NT KBED-KSYR
Flight info
| Callsign | N504NT |
|---|---|
| Flight time | 1h 8m |
| Altitude | 28000 |
| Route | HYLND MANCH CAM LAMMS SYR |
| Aircraft | P180/L-VGD/C |
Departure
| Time | 2026-04-22 00:57 |
|---|---|
| Airport | Laurence G Hanscom Field (KBED) |
Arrival
| Time | 2026-04-22 02:05 |
|---|---|
| Airport | Syracuse Hancock International Airport (KSYR) |
| Time | Latitude | Longitude | Altitude | Speed | Heading |
|---|---|---|---|---|---|
| 2026-04-22 00:42 | 42.46205 | -71.28948 | 128 ft | 0 kts | 249° |
| 2026-04-22 00:50 | 42.46204 | -71.28949 | 130 ft | 1 kts | 240° |
| 2026-04-22 00:50 | 42.46203 | -71.28930 | 128 ft | 7 kts | 355° |
| 2026-04-22 00:50 | 42.46264 | -71.28947 | 128 ft | 11 kts | 346° |
| 2026-04-22 00:50 | 42.46326 | -71.28975 | 131 ft | 6 kts | 332° |
| 2026-04-22 00:51 | 42.46366 | -71.29024 | 127 ft | 10 kts | 307° |
| 2026-04-22 00:51 | 42.46388 | -71.29131 | 132 ft | 14 kts | 277° |
| 2026-04-22 00:51 | 42.46408 | -71.29192 | 133 ft | 0 kts | 303° |
| 2026-04-22 00:52 | 42.46412 | -71.29200 | 133 ft | 6 kts | 301° |
| 2026-04-22 00:52 | 42.46394 | -71.29277 | 132 ft | 12 kts | 217° |
| 2026-04-22 00:52 | 42.46310 | -71.29363 | 131 ft | 18 kts | 216° |
| 2026-04-22 00:53 | 42.46246 | -71.29437 | 132 ft | 18 kts | 241° |
| 2026-04-22 00:53 | 42.46305 | -71.29592 | 128 ft | 22 kts | 308° |
| 2026-04-22 00:53 | 42.46415 | -71.29748 | 129 ft | 24 kts | 340° |
| 2026-04-22 00:53 | 42.46571 | -71.29828 | 128 ft | 24 kts | 339° |
| 2026-04-22 00:54 | 42.46723 | -71.29911 | 132 ft | 21 kts | 338° |
| 2026-04-22 00:54 | 42.46869 | -71.29989 | 135 ft | 20 kts | 338° |
| 2026-04-22 00:54 | 42.46964 | -71.29985 | 136 ft | 6 kts | 10° |
| 2026-04-22 00:54 | 42.46994 | -71.30023 | 137 ft | 10 kts | 328° |
| 2026-04-22 00:55 | 42.47074 | -71.30024 | 136 ft | 9 kts | 6° |
| 2026-04-22 00:55 | 42.47077 | -71.30023 | 136 ft | 1 kts | 6° |
| 2026-04-22 00:55 | 42.47173 | -71.30002 | 138 ft | 10 kts | 42° |
| 2026-04-22 00:56 | 42.47178 | -71.29963 | 138 ft | 0 kts | 96° |
| 2026-04-22 00:56 | 42.47178 | -71.29962 | 138 ft | 1 kts | 96° |
| 2026-04-22 00:56 | 42.47146 | -71.29633 | 138 ft | 81 kts | 97° |
| 2026-04-22 00:57 | 42.47036 | -71.28634 | 416 ft | 121 kts | 100° |
| 2026-04-22 00:57 | 42.47081 | -71.27366 | 887 ft | 161 kts | 69° |
| 2026-04-22 00:57 | 42.47973 | -71.26170 | 1214 ft | 192 kts | 37° |
| 2026-04-22 00:57 | 42.49065 | -71.25196 | 1762 ft | 185 kts | 35° |
| 2026-04-22 00:58 | 42.50188 | -71.24189 | 1987 ft | 208 kts | 36° |
| 2026-04-22 00:58 | 42.51456 | -71.23023 | 2012 ft | 222 kts | 36° |
| 2026-04-22 00:58 | 42.52830 | -71.22259 | 2091 ft | 213 kts | 4° |
| 2026-04-22 00:58 | 42.54301 | -71.22256 | 2637 ft | 205 kts | 356° |
| 2026-04-22 00:59 | 42.55672 | -71.22295 | 3396 ft | 191 kts | 356° |
| 2026-04-22 00:59 | 42.56959 | -71.22314 | 4132 ft | 179 kts | 356° |
| 2026-04-22 00:59 | 42.58179 | -71.22313 | 4813 ft | 174 kts | 356° |
| 2026-04-22 00:59 | 42.59451 | -71.22301 | 5007 ft | 195 kts | 356° |
| 2026-04-22 01:00 | 42.60831 | -71.22293 | 5405 ft | 195 kts | 356° |
| 2026-04-22 01:00 | 42.62168 | -71.22278 | 5956 ft | 189 kts | 356° |
| 2026-04-22 01:00 | 42.63472 | -71.22261 | 6516 ft | 183 kts | 352° |
| 2026-04-22 01:00 | 42.64664 | -71.22688 | 7053 ft | 175 kts | 339° |
| 2026-04-22 01:01 | 42.65837 | -71.23093 | 7577 ft | 172 kts | 342° |
| 2026-04-22 01:01 | 42.66968 | -71.23479 | 8111 ft | 168 kts | 341° |
| 2026-04-22 01:01 | 42.68082 | -71.23880 | 8654 ft | 163 kts | 341° |
| 2026-04-22 01:01 | 42.69159 | -71.24272 | 9224 ft | 157 kts | 341° |
| 2026-04-22 01:02 | 42.70228 | -71.24668 | 10109 ft | 156 kts | 341° |
| 2026-04-22 01:02 | 42.71271 | -71.25054 | 10928 ft | 154 kts | 341° |
| 2026-04-22 01:02 | 42.72307 | -71.25433 | 11694 ft | 154 kts | 341° |
| 2026-04-22 01:02 | 42.73344 | -71.25810 | 12435 ft | 154 kts | 340° |
| 2026-04-22 01:03 | 42.74382 | -71.26187 | 13179 ft | 154 kts | 340° |
| 2026-04-22 01:03 | 42.75419 | -71.26564 | 13901 ft | 154 kts | 340° |
| 2026-04-22 01:03 | 42.76455 | -71.26941 | 14536 ft | 154 kts | 340° |
| 2026-04-22 01:03 | 42.77498 | -71.27322 | 15123 ft | 155 kts | 339° |
| 2026-04-22 01:04 | 42.78466 | -71.27925 | 15694 ft | 153 kts | 324° |
| 2026-04-22 01:04 | 42.79302 | -71.28815 | 16249 ft | 153 kts | 322° |
| 2026-04-22 01:04 | 42.80151 | -71.29696 | 16799 ft | 154 kts | 322° |
| 2026-04-22 01:04 | 42.80993 | -71.30569 | 17345 ft | 154 kts | 322° |
| 2026-04-22 01:05 | 42.81849 | -71.31458 | 17923 ft | 155 kts | 321° |
| 2026-04-22 01:05 | 42.82719 | -71.32367 | 18497 ft | 156 kts | 321° |
| 2026-04-22 01:05 | 42.83572 | -71.33259 | 18976 ft | 157 kts | 321° |
| 2026-04-22 01:05 | 42.84441 | -71.34168 | 19456 ft | 158 kts | 321° |
| 2026-04-22 01:06 | 42.85312 | -71.35080 | 19934 ft | 158 kts | 321° |
| 2026-04-22 01:06 | 42.86147 | -71.36057 | 20420 ft | 159 kts | 313° |
| 2026-04-22 01:06 | 42.86771 | -71.37315 | 20917 ft | 162 kts | 301° |
| 2026-04-22 01:06 | 42.87132 | -71.38801 | 21428 ft | 169 kts | 289° |
| 2026-04-22 01:07 | 42.87252 | -71.40422 | 21941 ft | 173 kts | 285° |
| 2026-04-22 01:07 | 42.87366 | -71.42054 | 22474 ft | 173 kts | 286° |
| 2026-04-22 01:07 | 42.87486 | -71.43693 | 23007 ft | 174 kts | 286° |
| 2026-04-22 01:07 | 42.87605 | -71.45343 | 23549 ft | 175 kts | 285° |
| 2026-04-22 01:08 | 42.87723 | -71.47011 | 24058 ft | 177 kts | 285° |
| 2026-04-22 01:08 | 42.87841 | -71.48683 | 24503 ft | 178 kts | 285° |
| 2026-04-22 01:08 | 42.87960 | -71.50370 | 24948 ft | 179 kts | 285° |
| 2026-04-22 01:08 | 42.88080 | -71.52071 | 25413 ft | 181 kts | 285° |
| 2026-04-22 01:09 | 42.88201 | -71.53788 | 25883 ft | 183 kts | 285° |
| 2026-04-22 01:09 | 42.88323 | -71.55500 | 26383 ft | 184 kts | 285° |
| 2026-04-22 01:09 | 42.88445 | -71.57245 | 26894 ft | 186 kts | 285° |
| 2026-04-22 01:09 | 42.88568 | -71.59009 | 27400 ft | 188 kts | 285° |
| 2026-04-22 01:10 | 42.88693 | -71.60797 | 27863 ft | 192 kts | 285° |
| 2026-04-22 01:10 | 42.88830 | -71.62684 | 27999 ft | 209 kts | 285° |
| 2026-04-22 01:10 | 42.88979 | -71.64758 | 28016 ft | 230 kts | 284° |
| 2026-04-22 01:10 | 42.89134 | -71.67017 | 28019 ft | 248 kts | 283° |
| 2026-04-22 01:11 | 42.89297 | -71.69434 | 28023 ft | 264 kts | 283° |
| 2026-04-22 01:11 | 42.89470 | -71.71988 | 28023 ft | 277 kts | 282° |
| 2026-04-22 01:11 | 42.89654 | -71.74673 | 28023 ft | 289 kts | 282° |
| 2026-04-22 01:11 | 42.89842 | -71.77452 | 27999 ft | 299 kts | 282° |
| 2026-04-22 01:12 | 42.90033 | -71.80280 | 27995 ft | 307 kts | 282° |
| 2026-04-22 01:12 | 42.90232 | -71.83220 | 27991 ft | 315 kts | 282° |
| 2026-04-22 01:12 | 42.90434 | -71.86222 | 27990 ft | 320 kts | 281° |
| 2026-04-22 01:12 | 42.90637 | -71.89276 | 27986 ft | 325 kts | 281° |
| 2026-04-22 01:13 | 42.90844 | -71.92369 | 27983 ft | 329 kts | 281° |
| 2026-04-22 01:13 | 42.91052 | -71.95489 | 27983 ft | 332 kts | 281° |
| 2026-04-22 01:13 | 42.91260 | -71.98639 | 27984 ft | 334 kts | 281° |
| 2026-04-22 01:13 | 42.91463 | -72.01795 | 27984 ft | 332 kts | 281° |
| 2026-04-22 01:14 | 42.91657 | -72.04925 | 27982 ft | 330 kts | 281° |
| 2026-04-22 01:14 | 42.91861 | -72.08031 | 27983 ft | 328 kts | 281° |
| 2026-04-22 01:14 | 42.92069 | -72.11125 | 27981 ft | 327 kts | 281° |
| 2026-04-22 01:14 | 42.92270 | -72.14217 | 27975 ft | 326 kts | 281° |
| 2026-04-22 01:15 | 42.92464 | -72.17256 | 27973 ft | 326 kts | 281° |
| 2026-04-22 01:15 | 42.92668 | -72.20366 | 28033 ft | 324 kts | 281° |
| 2026-04-22 01:15 | 42.92873 | -72.23424 | 28166 ft | 323 kts | 281° |
| 2026-04-22 01:15 | 42.93071 | -72.26442 | 28245 ft | 325 kts | 281° |
| 2026-04-22 01:16 | 42.93459 | -72.32641 | 28242 ft | 329 kts | 281° |
| 2026-04-22 01:16 | 42.93855 | -72.38906 | 28239 ft | 332 kts | 281° |
| 2026-04-22 01:17 | 42.94246 | -72.45196 | 28241 ft | 332 kts | 281° |
| 2026-04-22 01:17 | 42.94632 | -72.51462 | 28234 ft | 331 kts | 281° |
| 2026-04-22 01:18 | 42.95017 | -72.57723 | 28246 ft | 330 kts | 281° |
| 2026-04-22 01:18 | 42.95395 | -72.63973 | 28236 ft | 330 kts | 280° |
| 2026-04-22 01:19 | 42.95771 | -72.70211 | 28250 ft | 329 kts | 280° |
| 2026-04-22 01:19 | 42.96143 | -72.76445 | 28254 ft | 329 kts | 280° |
| 2026-04-22 01:20 | 42.96509 | -72.82677 | 28246 ft | 329 kts | 280° |
| 2026-04-22 01:20 | 42.96875 | -72.88902 | 28240 ft | 329 kts | 280° |
| 2026-04-22 01:21 | 42.97234 | -72.95124 | 28236 ft | 329 kts | 280° |
| 2026-04-22 01:21 | 42.97592 | -73.01353 | 28230 ft | 329 kts | 280° |
| 2026-04-22 01:22 | 42.97943 | -73.07528 | 28229 ft | 328 kts | 280° |
| 2026-04-22 01:22 | 42.98294 | -73.13780 | 28233 ft | 329 kts | 280° |
| 2026-04-22 01:23 | 42.98639 | -73.19967 | 28226 ft | 329 kts | 280° |
| 2026-04-22 01:23 | 42.98985 | -73.26195 | 28227 ft | 329 kts | 279° |
| 2026-04-22 01:24 | 42.99323 | -73.32426 | 28223 ft | 328 kts | 279° |
| 2026-04-22 01:24 | 42.99536 | -73.38661 | 28224 ft | 329 kts | 277° |
| 2026-04-22 01:25 | 42.99696 | -73.44906 | 28223 ft | 328 kts | 278° |
| 2026-04-22 01:25 | 42.99846 | -73.51108 | 28224 ft | 328 kts | 277° |
| 2026-04-22 01:26 | 42.99996 | -73.57336 | 28225 ft | 328 kts | 277° |
| 2026-04-22 01:26 | 43.00140 | -73.63567 | 28227 ft | 328 kts | 277° |
| 2026-04-22 01:27 | 43.00283 | -73.69787 | 28226 ft | 328 kts | 277° |
| 2026-04-22 01:27 | 43.00421 | -73.76013 | 28227 ft | 328 kts | 277° |
| 2026-04-22 01:28 | 43.00556 | -73.82245 | 28225 ft | 328 kts | 277° |
| 2026-04-22 01:28 | 43.00688 | -73.88479 | 28224 ft | 328 kts | 277° |
| 2026-04-22 01:29 | 43.00798 | -73.94634 | 28223 ft | 325 kts | 277° |
| 2026-04-22 01:29 | 43.00930 | -74.00788 | 28222 ft | 323 kts | 277° |
| 2026-04-22 01:30 | 43.01047 | -74.06926 | 28222 ft | 322 kts | 277° |
| 2026-04-22 01:30 | 43.01165 | -74.13043 | 28217 ft | 322 kts | 277° |
| 2026-04-22 01:31 | 43.01278 | -74.19165 | 28221 ft | 322 kts | 277° |
| 2026-04-22 01:31 | 43.01335 | -74.22256 | 27943 ft | 328 kts | 277° |
| 2026-04-22 01:31 | 43.01393 | -74.25384 | 27516 ft | 336 kts | 276° |
| 2026-04-22 01:32 | 43.01447 | -74.28535 | 27078 ft | 324 kts | 276° |
| 2026-04-22 01:32 | 43.01499 | -74.31577 | 26648 ft | 314 kts | 277° |
| 2026-04-22 01:32 | 43.01552 | -74.34520 | 26237 ft | 306 kts | 277° |
| 2026-04-22 01:32 | 43.01601 | -74.37396 | 25841 ft | 299 kts | 277° |
| 2026-04-22 01:33 | 43.01648 | -74.40212 | 25453 ft | 294 kts | 277° |
| 2026-04-22 01:33 | 43.01692 | -74.42949 | 25070 ft | 289 kts | 277° |
| 2026-04-22 01:33 | 43.01735 | -74.45674 | 24692 ft | 285 kts | 277° |
| 2026-04-22 01:33 | 43.01794 | -74.48362 | 24310 ft | 281 kts | 278° |
| 2026-04-22 01:34 | 43.01950 | -74.51004 | 23982 ft | 276 kts | 281° |
| 2026-04-22 01:34 | 43.02114 | -74.53587 | 23710 ft | 271 kts | 280° |
| 2026-04-22 01:34 | 43.02232 | -74.56135 | 23406 ft | 266 kts | 279° |
| 2026-04-22 01:34 | 43.02337 | -74.58661 | 23098 ft | 269 kts | 279° |
| 2026-04-22 01:35 | 43.02462 | -74.61244 | 22793 ft | 276 kts | 279° |
| 2026-04-22 01:35 | 43.02589 | -74.63893 | 22495 ft | 282 kts | 279° |
| 2026-04-22 01:35 | 43.02709 | -74.66598 | 22204 ft | 287 kts | 278° |
| 2026-04-22 01:35 | 43.02833 | -74.69340 | 21914 ft | 290 kts | 278° |
| 2026-04-22 01:36 | 43.02960 | -74.72100 | 21628 ft | 292 kts | 278° |
| 2026-04-22 01:36 | 43.03088 | -74.74847 | 21347 ft | 293 kts | 278° |
| 2026-04-22 01:36 | 43.03214 | -74.77626 | 21063 ft | 293 kts | 278° |
| 2026-04-22 01:36 | 43.03339 | -74.80407 | 20785 ft | 293 kts | 278° |
| 2026-04-22 01:37 | 43.03464 | -74.83188 | 20506 ft | 293 kts | 278° |
| 2026-04-22 01:37 | 43.03589 | -74.85967 | 20233 ft | 292 kts | 278° |
| 2026-04-22 01:37 | 43.03712 | -74.88735 | 19955 ft | 291 kts | 278° |
| 2026-04-22 01:37 | 43.03793 | -74.90561 | 19776 ft | 290 kts | 277° |
| 2026-04-22 01:38 | 43.03914 | -74.93308 | 19512 ft | 289 kts | 277° |
| 2026-04-22 01:38 | 43.04034 | -74.96049 | 19238 ft | 288 kts | 277° |
| 2026-04-22 01:38 | 43.04154 | -74.98784 | 18980 ft | 287 kts | 277° |
| 2026-04-22 01:38 | 43.04272 | -75.01510 | 18715 ft | 286 kts | 277° |
| 2026-04-22 01:39 | 43.04389 | -75.04219 | 18443 ft | 285 kts | 277° |
| 2026-04-22 01:39 | 43.04505 | -75.06918 | 18146 ft | 284 kts | 277° |
| 2026-04-22 01:39 | 43.04620 | -75.09618 | 17843 ft | 284 kts | 277° |
| 2026-04-22 01:39 | 43.04735 | -75.12316 | 17544 ft | 283 kts | 277° |
| 2026-04-22 01:40 | 43.04847 | -75.14973 | 17255 ft | 283 kts | 277° |
| 2026-04-22 01:40 | 43.04962 | -75.17656 | 16959 ft | 282 kts | 276° |
| 2026-04-22 01:40 | 43.05072 | -75.20337 | 16673 ft | 283 kts | 276° |
| 2026-04-22 01:40 | 43.05182 | -75.23023 | 16386 ft | 283 kts | 276° |
| 2026-04-22 01:41 | 43.05293 | -75.25708 | 16105 ft | 283 kts | 276° |
| 2026-04-22 01:41 | 43.05405 | -75.28402 | 15814 ft | 283 kts | 276° |
| 2026-04-22 01:41 | 43.05515 | -75.31101 | 15543 ft | 283 kts | 276° |
| 2026-04-22 01:41 | 43.05624 | -75.33794 | 15268 ft | 284 kts | 276° |
| 2026-04-22 01:42 | 43.05732 | -75.36493 | 14997 ft | 284 kts | 276° |
| 2026-04-22 01:42 | 43.05841 | -75.39192 | 14723 ft | 284 kts | 276° |
| 2026-04-22 01:42 | 43.05948 | -75.41893 | 14454 ft | 284 kts | 276° |
| 2026-04-22 01:42 | 43.06055 | -75.44593 | 14190 ft | 284 kts | 276° |
| 2026-04-22 01:43 | 43.06160 | -75.47260 | 13919 ft | 284 kts | 276° |
| 2026-04-22 01:43 | 43.06263 | -75.49928 | 13621 ft | 278 kts | 276° |
| 2026-04-22 01:43 | 43.06366 | -75.52546 | 13321 ft | 274 kts | 276° |
| 2026-04-22 01:43 | 43.06468 | -75.55135 | 13024 ft | 271 kts | 276° |
| 2026-04-22 01:44 | 43.06567 | -75.57705 | 12733 ft | 269 kts | 276° |
| 2026-04-22 01:44 | 43.06665 | -75.60260 | 12448 ft | 268 kts | 276° |
| 2026-04-22 01:44 | 43.06760 | -75.62799 | 12168 ft | 267 kts | 276° |
| 2026-04-22 01:44 | 43.06856 | -75.65329 | 11881 ft | 266 kts | 276° |
| 2026-04-22 01:45 | 43.06952 | -75.67849 | 11602 ft | 265 kts | 276° |
| 2026-04-22 01:45 | 43.07043 | -75.70323 | 11327 ft | 263 kts | 276° |
| 2026-04-22 01:45 | 43.07135 | -75.72816 | 11050 ft | 261 kts | 276° |
| 2026-04-22 01:45 | 43.07227 | -75.75287 | 10764 ft | 260 kts | 276° |
| 2026-04-22 01:46 | 43.07318 | -75.77755 | 10491 ft | 259 kts | 276° |
| 2026-04-22 01:46 | 43.07407 | -75.80213 | 10222 ft | 258 kts | 276° |
| 2026-04-22 01:46 | 43.07497 | -75.82671 | 9942 ft | 259 kts | 276° |
| 2026-04-22 01:46 | 43.07587 | -75.85129 | 9650 ft | 259 kts | 276° |
| 2026-04-22 01:47 | 43.07676 | -75.87587 | 9353 ft | 258 kts | 275° |
| 2026-04-22 01:47 | 43.07763 | -75.90045 | 9063 ft | 258 kts | 275° |
| 2026-04-22 01:47 | 43.07849 | -75.92501 | 8775 ft | 257 kts | 275° |
| 2026-04-22 01:47 | 43.07935 | -75.94937 | 8494 ft | 256 kts | 275° |
| 2026-04-22 01:48 | 43.08020 | -75.97358 | 8215 ft | 254 kts | 274° |
| 2026-04-22 01:48 | 43.08105 | -75.99773 | 7934 ft | 253 kts | 274° |
| 2026-04-22 01:48 | 43.08187 | -76.02152 | 7657 ft | 253 kts | 274° |
| 2026-04-22 01:48 | 43.08269 | -76.04558 | 7383 ft | 253 kts | 274° |
| 2026-04-22 01:49 | 43.08351 | -76.06962 | 7112 ft | 253 kts | 273° |
| 2026-04-22 01:49 | 43.08433 | -76.09361 | 6842 ft | 252 kts | 273° |
| 2026-04-22 01:49 | 43.08513 | -76.11755 | 6585 ft | 251 kts | 272° |
| 2026-04-22 01:49 | 43.08594 | -76.14128 | 6348 ft | 248 kts | 272° |
| 2026-04-22 01:50 | 43.08672 | -76.16475 | 6115 ft | 246 kts | 272° |
| 2026-04-22 01:50 | 43.08749 | -76.18814 | 5882 ft | 245 kts | 271° |
| 2026-04-22 01:50 | 43.08826 | -76.21146 | 5647 ft | 246 kts | 271° |
| 2026-04-22 01:50 | 43.08903 | -76.23479 | 5416 ft | 246 kts | 271° |
| 2026-04-22 01:51 | 43.08980 | -76.25815 | 5186 ft | 246 kts | 270° |
| 2026-04-22 01:51 | 43.09054 | -76.28141 | 5050 ft | 243 kts | 270° |
| 2026-04-22 01:51 | 43.09129 | -76.30413 | 5011 ft | 233 kts | 270° |
| 2026-04-22 01:51 | 43.09200 | -76.32568 | 4981 ft | 221 kts | 269° |
| 2026-04-22 01:52 | 43.09264 | -76.34633 | 4980 ft | 214 kts | 269° |
| 2026-04-22 01:52 | 43.09330 | -76.36611 | 4976 ft | 201 kts | 269° |
| 2026-04-22 01:52 | 43.09387 | -76.38460 | 4969 ft | 189 kts | 269° |
| 2026-04-22 01:52 | 43.09440 | -76.40250 | 4959 ft | 187 kts | 269° |
| 2026-04-22 01:53 | 43.09492 | -76.42006 | 4959 ft | 182 kts | 269° |
| 2026-04-22 01:53 | 43.09545 | -76.43719 | 4953 ft | 179 kts | 269° |
| 2026-04-22 01:53 | 43.09597 | -76.45406 | 4955 ft | 176 kts | 269° |
| 2026-04-22 01:53 | 43.09642 | -76.47074 | 4875 ft | 178 kts | 267° |
| 2026-04-22 01:54 | 43.09601 | -76.48789 | 4543 ft | 178 kts | 264° |
| 2026-04-22 01:54 | 43.09540 | -76.50467 | 4209 ft | 176 kts | 263° |
| 2026-04-22 01:54 | 43.09480 | -76.52164 | 3889 ft | 181 kts | 262° |
| 2026-04-22 01:54 | 43.09426 | -76.53829 | 3787 ft | 169 kts | 261° |
| 2026-04-22 01:55 | 43.09374 | -76.55274 | 3751 ft | 170 kts | 261° |
| 2026-04-22 01:55 | 43.09312 | -76.56888 | 3749 ft | 170 kts | 261° |
| 2026-04-22 01:55 | 43.09168 | -76.58449 | 3740 ft | 164 kts | 248° |
| 2026-04-22 01:55 | 43.08607 | -76.59772 | 3740 ft | 161 kts | 227° |
| 2026-04-22 01:56 | 43.07718 | -76.60681 | 3736 ft | 161 kts | 207° |
| 2026-04-22 01:56 | 43.06627 | -76.61041 | 3735 ft | 164 kts | 187° |
| 2026-04-22 01:56 | 43.05483 | -76.60764 | 3736 ft | 173 kts | 166° |
| 2026-04-22 01:56 | 43.04472 | -76.59799 | 3732 ft | 185 kts | 141° |
| 2026-04-22 01:57 | 43.03842 | -76.58218 | 3725 ft | 198 kts | 113° |
| 2026-04-22 01:57 | 43.03835 | -76.56300 | 3728 ft | 209 kts | 81° |
| 2026-04-22 01:57 | 43.04553 | -76.54562 | 3731 ft | 215 kts | 47° |
| 2026-04-22 01:57 | 43.05656 | -76.53199 | 3793 ft | 212 kts | 40° |
| 2026-04-22 01:58 | 43.06768 | -76.51874 | 3795 ft | 212 kts | 42° |
| 2026-04-22 01:58 | 43.07864 | -76.50508 | 3796 ft | 213 kts | 43° |
| 2026-04-22 01:58 | 43.08934 | -76.49136 | 3801 ft | 213 kts | 47° |
| 2026-04-22 01:58 | 43.09607 | -76.47391 | 3800 ft | 206 kts | 83° |
| 2026-04-22 01:59 | 43.09714 | -76.45464 | 3815 ft | 202 kts | 95° |
| 2026-04-22 01:59 | 43.09763 | -76.43549 | 3818 ft | 201 kts | 94° |
| 2026-04-22 01:59 | 43.09845 | -76.41635 | 3820 ft | 202 kts | 92° |
| 2026-04-22 01:59 | 43.09920 | -76.39715 | 3819 ft | 203 kts | 94° |
| 2026-04-22 02:00 | 43.09989 | -76.37783 | 3822 ft | 203 kts | 94° |
| 2026-04-22 02:00 | 43.10059 | -76.35874 | 3816 ft | 192 kts | 94° |
| 2026-04-22 02:00 | 43.10121 | -76.34140 | 3628 ft | 176 kts | 96° |
| 2026-04-22 02:00 | 43.10166 | -76.32519 | 3401 ft | 168 kts | 96° |
| 2026-04-22 02:01 | 43.10220 | -76.31079 | 3193 ft | 144 kts | 98° |
| 2026-04-22 02:01 | 43.10257 | -76.29794 | 3005 ft | 131 kts | 100° |
| 2026-04-22 02:01 | 43.10292 | -76.28512 | 2826 ft | 138 kts | 99° |
| 2026-04-22 02:01 | 43.10331 | -76.27181 | 2637 ft | 141 kts | 99° |
| 2026-04-22 02:02 | 43.10374 | -76.25838 | 2444 ft | 139 kts | 100° |
| 2026-04-22 02:02 | 43.10423 | -76.24560 | 2259 ft | 130 kts | 101° |
| 2026-04-22 02:02 | 43.10468 | -76.23355 | 2084 ft | 124 kts | 101° |
| 2026-04-22 02:02 | 43.10508 | -76.22200 | 1914 ft | 119 kts | 102° |
| 2026-04-22 02:03 | 43.10541 | -76.21081 | 1760 ft | 118 kts | 101° |
| 2026-04-22 02:03 | 43.10580 | -76.19966 | 1579 ft | 116 kts | 99° |
| 2026-04-22 02:03 | 43.10612 | -76.18876 | 1407 ft | 114 kts | 96° |
| 2026-04-22 02:03 | 43.10645 | -76.17816 | 1239 ft | 112 kts | 95° |
| 2026-04-22 02:04 | 43.10701 | -76.15688 | 934 ft | 108 kts | 92° |
| 2026-04-22 02:04 | 43.10744 | -76.14706 | 894 ft | 102 kts | 92° |
| 2026-04-22 02:04 | 43.10797 | -76.13713 | 697 ft | 107 kts | 92° |
| 2026-04-22 02:05 | 43.10818 | -76.12784 | 515 ft | 93 kts | 91° |
| 2026-04-22 02:05 | 43.10842 | -76.11976 | 415 ft | 77 kts | 90° |
| 2026-04-22 02:05 | 43.10858 | -76.11479 | 411 ft | 31 kts | 88° |
| 2026-04-22 02:05 | 43.10828 | -76.11308 | 412 ft | 15 kts | 146° |
| 2026-04-22 02:06 | 43.10701 | -76.11295 | 415 ft | 21 kts | 177° |
| 2026-04-22 02:06 | 43.10630 | -76.11206 | 414 ft | 15 kts | 94° |
| 2026-04-22 02:06 | 43.10634 | -76.11064 | 414 ft | 15 kts | 88° |
| 2026-04-22 02:06 | 43.10639 | -76.10929 | 412 ft | 14 kts | 86° |
| 2026-04-22 02:07 | 43.10645 | -76.10795 | 411 ft | 13 kts | 86° |
| 2026-04-22 02:07 | 43.10650 | -76.10681 | 412 ft | 11 kts | 86° |
| 2026-04-22 02:07 | 43.10640 | -76.10571 | 408 ft | 13 kts | 125° |
| 2026-04-22 02:07 | 43.10549 | -76.10538 | 408 ft | 15 kts | 177° |
| 2026-04-22 02:08 | 43.10453 | -76.10570 | 410 ft | 15 kts | 213° |
| 2026-04-22 02:08 | 43.10398 | -76.10660 | 411 ft | 2 kts | 262° |
| 2026-04-22 02:08 | 43.10397 | -76.10660 | 411 ft | 0 kts | 262° |